sensor_id;sensor_type;location;lat;lon;timestamp;pressure;altitude;pressure_sealevel;temperature;humidity
20612;BME280;10465;42.686;23.364;2022-10-16T00:01:14;95623.72;;;13.00;70.22
20612;BME280;10465;42.686;23.364;2022-10-16T00:03:41;95629.91;;;13.09;70.03
20612;BME280;10465;42.686;23.364;2022-10-16T00:06:07;95639.84;;;13.03;70.22
20612;BME280;10465;42.686;23.364;2022-10-16T00:08:34;95598.69;;;12.78;70.25
20612;BME280;10465;42.686;23.364;2022-10-16T00:11:01;95607.03;;;12.85;69.62
20612;BME280;10465;42.686;23.364;2022-10-16T00:13:28;95632.19;;;13.02;70.02
20612;BME280;10465;42.686;23.364;2022-10-16T00:15:58;95629.03;;;13.00;69.83
20612;BME280;10465;42.686;23.364;2022-10-16T00:18:25;95639.97;;;12.98;70.21
20612;BME280;10465;42.686;23.364;2022-10-16T00:20:50;95639.19;;;12.98;70.22
20612;BME280;10465;42.686;23.364;2022-10-16T00:23:16;95649.38;;;13.04;70.08
20612;BME280;10465;42.686;23.364;2022-10-16T00:25:42;95613.53;;;12.79;69.88
20612;BME280;10465;42.686;23.364;2022-10-16T00:28:07;95643.41;;;12.99;69.73
20612;BME280;10465;42.686;23.364;2022-10-16T00:30:33;95647.09;;;12.89;69.79
20612;BME280;10465;42.686;23.364;2022-10-16T00:32:58;95630.38;;;12.75;70.01
20612;BME280;10465;42.686;23.364;2022-10-16T00:35:23;95654.88;;;12.85;69.97
20612;BME280;10465;42.686;23.364;2022-10-16T00:37:49;95656.75;;;12.85;69.83
20612;BME280;10465;42.686;23.364;2022-10-16T00:40:15;95663.44;;;12.82;69.79
20612;BME280;10465;42.686;23.364;2022-10-16T00:42:40;95655.97;;;12.84;69.81
20612;BME280;10465;42.686;23.364;2022-10-16T00:45:08;95656.56;;;12.81;69.75
20612;BME280;10465;42.686;23.364;2022-10-16T00:47:44;95632.06;;;12.71;69.65
20612;BME280;10465;42.686;23.364;2022-10-16T00:50:30;95649.09;;;12.70;70.11
20612;BME280;10465;42.686;23.364;2022-10-16T00:52:57;95633.00;;;12.38;71.08
20612;BME280;10465;42.686;23.364;2022-10-16T00:55:27;95623.38;;;12.43;71.53
20612;BME280;10465;42.686;23.364;2022-10-16T00:57:56;95654.84;;;12.49;71.34
20612;BME280;10465;42.686;23.364;2022-10-16T01:00:25;95660.63;;;12.51;71.48
20612;BME280;10465;42.686;23.364;2022-10-16T01:02:56;95632.03;;;12.34;71.48
20612;BME280;10465;42.686;23.364;2022-10-16T01:05:23;95634.69;;;12.34;71.63
20612;BME280;10465;42.686;23.364;2022-10-16T01:08:02;95666.44;;;12.53;71.48
20612;BME280;10465;42.686;23.364;2022-10-16T01:10:39;95650.22;;;12.41;71.66
20612;BME280;10465;42.686;23.364;2022-10-16T01:13:07;95668.31;;;12.39;72.18
20612;BME280;10465;42.686;23.364;2022-10-16T01:15:39;95666.75;;;12.38;72.53
20612;BME280;10465;42.686;23.364;2022-10-16T01:18:28;95661.25;;;12.34;72.23
20612;BME280;10465;42.686;23.364;2022-10-16T01:21:00;95662.31;;;12.33;72.20
20612;BME280;10465;42.686;23.364;2022-10-16T01:23:42;95651.53;;;12.16;73.15
20612;BME280;10465;42.686;23.364;2022-10-16T01:26:59;95648.88;;;12.16;73.06
20612;BME280;10465;42.686;23.364;2022-10-16T01:30:01;95649.16;;;12.15;73.77
20612;BME280;10465;42.686;23.364;2022-10-16T01:32:32;95648.84;;;12.02;74.40
20612;BME280;10465;42.686;23.364;2022-10-16T01:35:03;95644.53;;;12.06;74.77
20612;BME280;10465;42.686;23.364;2022-10-16T01:37:51;95650.63;;;12.07;74.05
20612;BME280;10465;42.686;23.364;2022-10-16T01:40:20;95649.63;;;12.03;73.72
20612;BME280;10465;42.686;23.364;2022-10-16T01:43:05;95660.16;;;12.08;73.23
20612;BME280;10465;42.686;23.364;2022-10-16T01:45:33;95631.25;;;11.93;72.30
20612;BME280;10465;42.686;23.364;2022-10-16T01:48:01;95658.31;;;12.08;72.17
20612;BME280;10465;42.686;23.364;2022-10-16T01:50:30;95650.25;;;12.00;72.05
20612;BME280;10465;42.686;23.364;2022-10-16T01:52:56;95661.22;;;12.07;71.59
20612;BME280;10465;42.686;23.364;2022-10-16T01:55:29;95665.75;;;12.06;71.67
20612;BME280;10465;42.686;23.364;2022-10-16T01:57:59;95634.38;;;11.81;71.58
20612;BME280;10465;42.686;23.364;2022-10-16T02:00:26;95610.84;;;11.47;72.05
20612;BME280;10465;42.686;23.364;2022-10-16T02:02:54;95602.00;;;11.51;72.22
20612;BME280;10465;42.686;23.364;2022-10-16T02:05:30;95674.09;;;11.86;72.52
20612;BME280;10465;42.686;23.364;2022-10-16T02:07:56;95649.09;;;11.73;72.32
20612;BME280;10465;42.686;23.364;2022-10-16T02:10:23;95646.53;;;11.68;72.68
20612;BME280;10465;42.686;23.364;2022-10-16T02:15:27;95675.31;;;11.75;73.06
20612;BME280;10465;42.686;23.364;2022-10-16T02:17:53;95647.47;;;11.58;72.42
20612;BME280;10465;42.686;23.364;2022-10-16T02:20:25;95686.00;;;11.70;72.03
20612;BME280;10465;42.686;23.364;2022-10-16T02:22:53;95666.53;;;11.47;72.42
20612;BME280;10465;42.686;23.364;2022-10-16T02:25:36;95696.50;;;11.61;72.86
20612;BME280;10465;42.686;23.364;2022-10-16T02:28:19;95693.94;;;11.56;72.98
20612;BME280;10465;42.686;23.364;2022-10-16T02:31:03;95679.84;;;11.42;72.87
20612;BME280;10465;42.686;23.364;2022-10-16T02:33:30;95662.47;;;11.35;73.43
20612;BME280;10465;42.686;23.364;2022-10-16T02:35:57;95688.34;;;11.57;73.37
20612;BME280;10465;42.686;23.364;2022-10-16T02:38:24;95690.50;;;11.55;73.13
20612;BME280;10465;42.686;23.364;2022-10-16T02:40:50;95689.19;;;11.39;72.28
20612;BME280;10465;42.686;23.364;2022-10-16T02:43:16;95687.66;;;11.33;72.62
20612;BME280;10465;42.686;23.364;2022-10-16T02:45:42;95632.59;;;10.78;72.93
20612;BME280;10465;42.686;23.364;2022-10-16T02:48:07;95686.84;;;11.00;73.42
20612;BME280;10465;42.686;23.364;2022-10-16T02:50:33;95699.16;;;11.09;73.52
20612;BME280;10465;42.686;23.364;2022-10-16T02:52:59;95665.00;;;10.89;73.80
20612;BME280;10465;42.686;23.364;2022-10-16T02:55:24;95681.84;;;10.98;73.90
20612;BME280;10465;42.686;23.364;2022-10-16T02:57:50;95693.72;;;11.01;73.60
20612;BME280;10465;42.686;23.364;2022-10-16T03:00:16;95703.44;;;11.05;73.32
20612;BME280;10465;42.686;23.364;2022-10-16T03:02:42;95708.09;;;11.13;72.95
20612;BME280;10465;42.686;23.364;2022-10-16T03:05:09;95670.22;;;10.75;72.46
20612;BME280;10465;42.686;23.364;2022-10-16T03:07:35;95709.91;;;10.99;72.87
20612;BME280;10465;42.686;23.364;2022-10-16T03:10:00;95706.50;;;10.94;73.42
20612;BME280;10465;42.686;23.364;2022-10-16T03:12:27;95703.53;;;11.00;73.50
20612;BME280;10465;42.686;23.364;2022-10-16T03:14:53;95691.22;;;10.91;73.96
20612;BME280;10465;42.686;23.364;2022-10-16T03:17:18;95716.03;;;11.13;73.73
20612;BME280;10465;42.686;23.364;2022-10-16T03:19:44;95697.00;;;11.11;73.36
20612;BME280;10465;42.686;23.364;2022-10-16T03:22:10;95704.09;;;11.16;73.19
20612;BME280;10465;42.686;23.364;2022-10-16T03:24:35;95687.72;;;11.14;72.49
20612;BME280;10465;42.686;23.364;2022-10-16T03:27:00;95693.94;;;11.23;72.93
20612;BME280;10465;42.686;23.364;2022-10-16T03:29:26;95706.97;;;11.20;72.95
20612;BME280;10465;42.686;23.364;2022-10-16T03:31:52;95703.34;;;11.29;72.56
20612;BME280;10465;42.686;23.364;2022-10-16T03:34:18;95719.47;;;11.33;72.59
20612;BME280;10465;42.686;23.364;2022-10-16T03:36:43;95695.00;;;11.03;73.37
20612;BME280;10465;42.686;23.364;2022-10-16T03:39:09;95714.13;;;11.00;74.09
20612;BME280;10465;42.686;23.364;2022-10-16T03:41:34;95715.97;;;11.00;73.72
20612;BME280;10465;42.686;23.364;2022-10-16T03:44:00;95721.63;;;10.93;74.32
20612;BME280;10465;42.686;23.364;2022-10-16T03:46:25;95716.41;;;10.88;74.65
20612;BME280;10465;42.686;23.364;2022-10-16T03:48:50;95727.50;;;10.90;74.76
20612;BME280;10465;42.686;23.364;2022-10-16T03:51:16;95715.84;;;10.91;74.63
20612;BME280;10465;42.686;23.364;2022-10-16T03:53:41;95709.59;;;11.01;74.40
20612;BME280;10465;42.686;23.364;2022-10-16T03:56:07;95714.63;;;11.02;74.22
20612;BME280;10465;42.686;23.364;2022-10-16T03:58:32;95707.91;;;10.91;73.98
20612;BME280;10465;42.686;23.364;2022-10-16T04:00:58;95705.25;;;10.91;74.02
20612;BME280;10465;42.686;23.364;2022-10-16T04:03:23;95713.72;;;10.69;74.95
20612;BME280;10465;42.686;23.364;2022-10-16T04:05:49;95677.66;;;10.54;74.78
20612;BME280;10465;42.686;23.364;2022-10-16T04:08:15;95712.09;;;10.73;74.88
20612;BME280;10465;42.686;23.364;2022-10-16T04:10:42;95718.00;;;10.65;75.00
20612;BME280;10465;42.686;23.364;2022-10-16T04:13:09;95675.91;;;10.45;74.40
20612;BME280;10465;42.686;23.364;2022-10-16T04:15:34;95702.41;;;10.63;74.34
20612;BME280;10465;42.686;23.364;2022-10-16T04:17:59;95668.47;;;10.47;73.50
20612;BME280;10465;42.686;23.364;2022-10-16T04:20:25;95720.16;;;10.63;73.84
20612;BME280;10465;42.686;23.364;2022-10-16T04:22:50;95730.44;;;10.70;73.52
20612;BME280;10465;42.686;23.364;2022-10-16T04:25:16;95713.88;;;10.59;73.84
20612;BME280;10465;42.686;23.364;2022-10-16T04:27:42;95713.63;;;10.55;73.82
20612;BME280;10465;42.686;23.364;2022-10-16T04:30:08;95723.81;;;10.67;73.56
20612;BME280;10465;42.686;23.364;2022-10-16T04:32:34;95718.53;;;10.67;73.36
20612;BME280;10465;42.686;23.364;2022-10-16T04:35:00;95732.78;;;10.71;73.09
20612;BME280;10465;42.686;23.364;2022-10-16T04:37:26;95729.06;;;10.72;73.11
20612;BME280;10465;42.686;23.364;2022-10-16T04:39:53;95721.19;;;10.67;72.99
20612;BME280;10465;42.686;23.364;2022-10-16T04:42:19;95699.91;;;10.53;73.17
20612;BME280;10465;42.686;23.364;2022-10-16T04:44:44;95731.78;;;10.67;73.50
20612;BME280;10465;42.686;23.364;2022-10-16T04:47:10;95743.06;;;10.73;73.04
20612;BME280;10465;42.686;23.364;2022-10-16T04:49:35;95716.59;;;10.54;73.32
20612;BME280;10465;42.686;23.364;2022-10-16T04:52:01;95738.78;;;10.58;73.18
20612;BME280;10465;42.686;23.364;2022-10-16T04:54:26;95737.88;;;10.44;73.57
20612;BME280;10465;42.686;23.364;2022-10-16T04:56:51;95744.41;;;10.51;74.34
20612;BME280;10465;42.686;23.364;2022-10-16T04:59:18;95761.28;;;10.55;73.66
20612;BME280;10465;42.686;23.364;2022-10-16T05:01:44;95763.31;;;10.63;73.02
20612;BME280;10465;42.686;23.364;2022-10-16T05:04:09;95754.06;;;10.61;73.33
20612;BME280;10465;42.686;23.364;2022-10-16T05:06:35;95769.63;;;10.68;73.06
20612;BME280;10465;42.686;23.364;2022-10-16T05:09:01;95766.91;;;10.73;73.46
20612;BME280;10465;42.686;23.364;2022-10-16T05:11:27;95768.06;;;10.67;73.07
20612;BME280;10465;42.686;23.364;2022-10-16T05:13:52;95766.97;;;10.68;73.55
20612;BME280;10465;42.686;23.364;2022-10-16T05:16:18;95766.69;;;10.69;73.46
20612;BME280;10465;42.686;23.364;2022-10-16T05:18:43;95748.50;;;10.38;74.29
20612;BME280;10465;42.686;23.364;2022-10-16T05:21:08;95772.91;;;10.59;74.47
20612;BME280;10465;42.686;23.364;2022-10-16T05:23:34;95772.13;;;10.59;74.18
20612;BME280;10465;42.686;23.364;2022-10-16T05:26:00;95748.91;;;10.51;74.13
20612;BME280;10465;42.686;23.364;2022-10-16T05:28:27;95762.25;;;10.64;74.20
20612;BME280;10465;42.686;23.364;2022-10-16T05:30:53;95752.97;;;10.67;74.33
20612;BME280;10465;42.686;23.364;2022-10-16T05:33:23;95775.81;;;10.82;74.51
20612;BME280;10465;42.686;23.364;2022-10-16T05:35:50;95756.38;;;10.68;74.16
20612;BME280;10465;42.686;23.364;2022-10-16T05:38:16;95779.50;;;10.86;74.30
20612;BME280;10465;42.686;23.364;2022-10-16T05:40:43;95766.44;;;10.89;73.88
20612;BME280;10465;42.686;23.364;2022-10-16T06:21:56;95833.19;;;11.53;72.83
20612;BME280;10465;42.686;23.364;2022-10-16T06:24:23;95830.69;;;11.43;72.80
20612;BME280;10465;42.686;23.364;2022-10-16T06:26:48;95832.63;;;11.56;72.47
20612;BME280;10465;42.686;23.364;2022-10-16T06:29:14;95835.75;;;11.58;72.37
20612;BME280;10465;42.686;23.364;2022-10-16T06:31:39;95820.50;;;11.50;71.96
20612;BME280;10465;42.686;23.364;2022-10-16T06:34:05;95839.72;;;11.80;71.86
20612;BME280;10465;42.686;23.364;2022-10-16T06:39:26;95841.34;;;11.95;71.06
20612;BME280;10465;42.686;23.364;2022-10-16T06:41:51;95851.81;;;12.05;71.09
20612;BME280;10465;42.686;23.364;2022-10-16T06:44:17;95819.56;;;11.98;70.98
20612;BME280;10465;42.686;23.364;2022-10-16T06:46:42;95849.41;;;12.22;70.47
20612;BME280;10465;42.686;23.364;2022-10-16T06:49:08;95851.28;;;12.22;70.25
20612;BME280;10465;42.686;23.364;2022-10-16T06:51:33;95838.38;;;12.15;70.42
20612;BME280;10465;42.686;23.364;2022-10-16T06:54:01;95853.78;;;12.32;69.90
20612;BME280;10465;42.686;23.364;2022-10-16T06:56:28;95866.66;;;12.38;69.50
20612;BME280;10465;42.686;23.364;2022-10-16T06:58:55;95867.28;;;12.49;69.04
20612;BME280;10465;42.686;23.364;2022-10-16T07:01:22;95839.03;;;12.40;68.99
20612;BME280;10465;42.686;23.364;2022-10-16T07:03:48;95865.75;;;12.62;68.45
20612;BME280;10465;42.686;23.364;2022-10-16T07:06:16;95880.53;;;12.68;68.69
20612;BME280;10465;42.686;23.364;2022-10-16T07:08:44;95859.06;;;12.65;68.74
20612;BME280;10465;42.686;23.364;2022-10-16T07:11:12;95870.00;;;12.91;68.35
20612;BME280;10465;42.686;23.364;2022-10-16T07:13:40;95875.41;;;12.99;67.89
20612;BME280;10465;42.686;23.364;2022-10-16T07:16:13;95867.44;;;12.99;67.53
20612;BME280;10465;42.686;23.364;2022-10-16T07:18:39;95878.16;;;13.08;67.30
20612;BME280;10465;42.686;23.364;2022-10-16T07:21:17;95862.72;;;13.10;66.93
20612;BME280;10465;42.686;23.364;2022-10-16T07:23:43;95889.03;;;13.39;66.19
20612;BME280;10465;42.686;23.364;2022-10-16T07:26:09;95885.56;;;13.52;66.09
20612;BME280;10465;42.686;23.364;2022-10-16T07:28:35;95884.25;;;13.64;65.78
20612;BME280;10465;42.686;23.364;2022-10-16T07:31:05;95879.78;;;13.73;65.24
20612;BME280;10465;42.686;23.364;2022-10-16T07:33:32;95877.13;;;13.73;64.42
20612;BME280;10465;42.686;23.364;2022-10-16T07:35:59;95873.31;;;14.01;64.34
20612;BME280;10465;42.686;23.364;2022-10-16T07:38:24;95861.09;;;14.00;64.09
20612;BME280;10465;42.686;23.364;2022-10-16T07:40:57;95882.75;;;14.30;63.53
20612;BME280;10465;42.686;23.364;2022-10-16T07:43:23;95864.47;;;14.37;63.08
20612;BME280;10465;42.686;23.364;2022-10-16T07:45:50;95879.69;;;14.59;62.25
20612;BME280;10465;42.686;23.364;2022-10-16T07:48:17;95877.34;;;14.66;61.68
20612;BME280;10465;42.686;23.364;2022-10-16T07:50:43;95886.72;;;14.86;61.90
20612;BME280;10465;42.686;23.364;2022-10-16T07:53:09;95883.97;;;15.00;61.28
20612;BME280;10465;42.686;23.364;2022-10-16T07:55:35;95883.50;;;15.06;60.70
20612;BME280;10465;42.686;23.364;2022-10-16T07:58:00;95873.66;;;15.07;61.00
20612;BME280;10465;42.686;23.364;2022-10-16T08:00:26;95873.97;;;15.14;59.71
20612;BME280;10465;42.686;23.364;2022-10-16T08:02:51;95881.03;;;15.19;59.76
20612;BME280;10465;42.686;23.364;2022-10-16T08:05:17;95891.13;;;15.39;58.79
20612;BME280;10465;42.686;23.364;2022-10-16T08:07:42;95893.19;;;15.51;59.23
20612;BME280;10465;42.686;23.364;2022-10-16T08:10:16;95896.75;;;15.69;59.23
20612;BME280;10465;42.686;23.364;2022-10-16T08:12:42;95899.09;;;15.88;58.35
20612;BME280;10465;42.686;23.364;2022-10-16T08:15:08;95887.34;;;15.97;57.74
20612;BME280;10465;42.686;23.364;2022-10-16T08:17:33;95888.59;;;16.26;56.94
20612;BME280;10465;42.686;23.364;2022-10-16T08:19:59;95878.50;;;16.49;56.06
20612;BME280;10465;42.686;23.364;2022-10-16T08:22:24;95890.09;;;16.79;55.57
20612;BME280;10465;42.686;23.364;2022-10-16T08:24:50;95880.16;;;16.88;55.37
20612;BME280;10465;42.686;23.364;2022-10-16T08:27:15;95881.28;;;17.17;54.05
20612;BME280;10465;42.686;23.364;2022-10-16T08:29:41;95884.44;;;17.48;53.38
20612;BME280;10465;42.686;23.364;2022-10-16T08:32:06;95876.31;;;17.74;52.13
20612;BME280;10465;42.686;23.364;2022-10-16T08:34:31;95875.31;;;18.00;51.38
20612;BME280;10465;42.686;23.364;2022-10-16T08:36:57;95873.69;;;18.08;49.88
20612;BME280;10465;42.686;23.364;2022-10-16T08:39:22;95880.19;;;18.40;49.62
20612;BME280;10465;42.686;23.364;2022-10-16T08:44:40;95881.66;;;18.83;47.34
20612;BME280;10465;42.686;23.364;2022-10-16T08:47:26;95883.03;;;19.01;46.72
20612;BME280;10465;42.686;23.364;2022-10-16T08:49:57;95872.97;;;19.10;46.23
20612;BME280;10465;42.686;23.364;2022-10-16T08:52:25;95887.06;;;19.32;44.32
20612;BME280;10465;42.686;23.364;2022-10-16T08:54:55;95872.75;;;19.27;42.85
20612;BME280;10465;42.686;23.364;2022-10-16T08:57:22;95886.06;;;19.61;42.82
20612;BME280;10465;42.686;23.364;2022-10-16T08:59:48;95890.09;;;19.67;41.97
20612;BME280;10465;42.686;23.364;2022-10-16T09:02:34;95887.66;;;19.74;41.89
20612;BME280;10465;42.686;23.364;2022-10-16T09:16:30;95875.88;;;20.47;39.58
20612;BME280;10465;42.686;23.364;2022-10-16T09:18:39;95869.16;;;20.53;39.30
20612;BME280;10465;42.686;23.364;2022-10-16T09:21:21;95885.16;;;20.78;39.25
20612;BME280;10465;42.686;23.364;2022-10-16T09:23:47;95885.78;;;20.87;39.27
20612;BME280;10465;42.686;23.364;2022-10-16T09:26:14;95888.13;;;20.88;38.97
20612;BME280;10465;42.686;23.364;2022-10-16T09:28:41;95886.91;;;21.02;38.51
20612;BME280;10465;42.686;23.364;2022-10-16T09:31:18;95886.16;;;21.17;38.11
20612;BME280;10465;42.686;23.364;2022-10-16T09:33:47;95880.84;;;21.20;37.71
20612;BME280;10465;42.686;23.364;2022-10-16T09:36:13;95727.59;;;20.33;36.87
20612;BME280;10465;42.686;23.364;2022-10-16T09:38:39;95867.13;;;21.41;37.17
20612;BME280;10465;42.686;23.364;2022-10-16T09:41:33;95882.78;;;21.36;36.89
20612;BME280;10465;42.686;23.364;2022-10-16T09:44:01;95860.00;;;21.33;36.81
20612;BME280;10465;42.686;23.364;2022-10-16T09:46:33;95873.00;;;21.63;37.25
20612;BME280;10465;42.686;23.364;2022-10-16T09:49:03;95877.50;;;21.75;36.24
20612;BME280;10465;42.686;23.364;2022-10-16T09:51:30;95866.78;;;21.78;36.10
20612;BME280;10465;42.686;23.364;2022-10-16T09:54:21;95867.25;;;21.80;35.06
20612;BME280;10465;42.686;23.364;2022-10-16T09:56:46;95871.84;;;21.80;34.81
20612;BME280;10465;42.686;23.364;2022-10-16T09:59:21;95861.78;;;21.96;35.34
20612;BME280;10465;42.686;23.364;2022-10-16T10:01:53;95856.59;;;22.07;35.10
20612;BME280;10465;42.686;23.364;2022-10-16T10:04:20;95849.63;;;22.21;34.38
20612;BME280;10465;42.686;23.364;2022-10-16T10:06:48;95860.75;;;22.39;33.46
20612;BME280;10465;42.686;23.364;2022-10-16T10:09:23;95855.19;;;22.52;33.34
20612;BME280;10465;42.686;23.364;2022-10-16T10:12:00;95855.13;;;22.48;33.75
20612;BME280;10465;42.686;23.364;2022-10-16T10:19:38;95831.25;;;22.92;33.24
20612;BME280;10465;42.686;23.364;2022-10-16T10:22:26;95838.19;;;23.16;32.94
20612;BME280;10465;42.686;23.364;2022-10-16T10:27:26;95840.31;;;23.04;33.21
20612;BME280;10465;42.686;23.364;2022-10-16T10:32:56;95840.19;;;23.19;33.34
20612;BME280;10465;42.686;23.364;2022-10-16T10:38:59;95819.41;;;22.97;33.07
20612;BME280;10465;42.686;23.364;2022-10-16T10:44:54;95822.75;;;23.13;32.41
20612;BME280;10465;42.686;23.364;2022-10-16T10:47:36;95822.00;;;23.16;32.40
20612;BME280;10465;42.686;23.364;2022-10-16T10:50:25;95818.38;;;23.32;33.17
20612;BME280;10465;42.686;23.364;2022-10-16T10:53:03;95815.72;;;23.35;32.66
20612;BME280;10465;42.686;23.364;2022-10-16T10:55:43;95806.75;;;23.54;32.10
20612;BME280;10465;42.686;23.364;2022-10-16T11:06:09;95787.50;;;23.59;31.40
20612;BME280;10465;42.686;23.364;2022-10-16T11:08:46;95807.91;;;23.83;31.29
20612;BME280;10465;42.686;23.364;2022-10-16T11:13:44;95798.91;;;24.06;30.62
20612;BME280;10465;42.686;23.364;2022-10-16T11:16:20;95802.13;;;24.15;30.40
20612;BME280;10465;42.686;23.364;2022-10-16T11:21:49;95798.81;;;24.32;30.84
20612;BME280;10465;42.686;23.364;2022-10-16T11:24:23;95801.25;;;24.41;30.23
20612;BME280;10465;42.686;23.364;2022-10-16T11:26:55;95793.91;;;24.41;29.45
20612;BME280;10465;42.686;23.364;2022-10-16T11:29:27;95788.63;;;24.52;30.28
20612;BME280;10465;42.686;23.364;2022-10-16T11:31:58;95792.16;;;24.60;29.81
20612;BME280;10465;42.686;23.364;2022-10-16T11:34:32;95777.88;;;24.63;29.41
20612;BME280;10465;42.686;23.364;2022-10-16T11:37:10;95786.88;;;24.74;29.57
20612;BME280;10465;42.686;23.364;2022-10-16T11:39:38;95788.94;;;24.88;29.83
20612;BME280;10465;42.686;23.364;2022-10-16T11:42:09;95785.91;;;24.97;29.22
20612;BME280;10465;42.686;23.364;2022-10-16T11:44:48;95789.22;;;24.79;29.17
20612;BME280;10465;42.686;23.364;2022-10-16T11:52:50;95786.94;;;24.81;29.51
20612;BME280;10465;42.686;23.364;2022-10-16T11:55:20;95793.09;;;24.78;29.75
20612;BME280;10465;42.686;23.364;2022-10-16T11:58:04;95782.69;;;24.80;29.78
20612;BME280;10465;42.686;23.364;2022-10-16T12:08:17;95783.63;;;25.02;28.98
20612;BME280;10465;42.686;23.364;2022-10-16T12:10:45;95775.53;;;25.06;28.57
20612;BME280;10465;42.686;23.364;2022-10-16T12:13:30;95791.44;;;25.11;28.54
20612;BME280;10465;42.686;23.364;2022-10-16T12:18:38;95762.25;;;24.90;29.76
20612;BME280;10465;42.686;23.364;2022-10-16T12:21:04;95773.97;;;25.05;29.20
20612;BME280;10465;42.686;23.364;2022-10-16T12:23:53;95772.94;;;25.24;28.66
20612;BME280;10465;42.686;23.364;2022-10-16T12:26:29;95786.25;;;25.47;28.63
20612;BME280;10465;42.686;23.364;2022-10-16T12:29:13;95778.09;;;25.43;28.79
20612;BME280;10465;42.686;23.364;2022-10-16T12:31:46;95780.84;;;25.47;28.49
20612;BME280;10465;42.686;23.364;2022-10-16T12:37:09;95777.81;;;25.59;28.60
20612;BME280;10465;42.686;23.364;2022-10-16T12:39:36;95766.84;;;25.37;29.19
20612;BME280;10465;42.686;23.364;2022-10-16T12:42:04;95785.91;;;25.48;28.51
20612;BME280;10465;42.686;23.364;2022-10-16T12:44:36;95781.59;;;25.44;28.51
20612;BME280;10465;42.686;23.364;2022-10-16T12:47:02;95776.16;;;25.40;28.56
20612;BME280;10465;42.686;23.364;2022-10-16T12:51:53;95779.91;;;25.21;29.36
20612;BME280;10465;42.686;23.364;2022-10-16T12:59:59;95787.22;;;25.13;28.17
20612;BME280;10465;42.686;23.364;2022-10-16T13:13:38;95794.56;;;25.13;29.61
20612;BME280;10465;42.686;23.364;2022-10-16T13:22:06;95790.97;;;25.02;30.98
20612;BME280;10465;42.686;23.364;2022-10-16T13:27:40;95785.81;;;24.86;31.26
20612;BME280;10465;42.686;23.364;2022-10-16T13:30:14;95792.78;;;24.83;32.22
20612;BME280;10465;42.686;23.364;2022-10-16T13:32:45;95789.25;;;24.83;40.92
20612;BME280;10465;42.686;23.364;2022-10-16T13:35:29;95793.06;;;24.75;44.57
20612;BME280;10465;42.686;23.364;2022-10-16T13:38:16;95798.66;;;24.52;47.06
20612;BME280;10465;42.686;23.364;2022-10-16T13:40:54;95790.50;;;24.48;50.39
20612;BME280;10465;42.686;23.364;2022-10-16T13:43:36;95790.81;;;24.39;50.19
20612;BME280;10465;42.686;23.364;2022-10-16T13:46:10;95796.66;;;24.45;50.02
20612;BME280;10465;42.686;23.364;2022-10-16T13:48:37;95800.56;;;24.48;42.69
20612;BME280;10465;42.686;23.364;2022-10-16T13:51:23;95796.13;;;24.32;36.51
20612;BME280;10465;42.686;23.364;2022-10-16T13:53:48;95791.34;;;24.22;42.83
20612;BME280;10465;42.686;23.364;2022-10-16T13:56:17;95800.28;;;24.23;43.64
20612;BME280;10465;42.686;23.364;2022-10-16T13:58:44;95781.91;;;24.05;41.52
20612;BME280;10465;42.686;23.364;2022-10-16T14:03:45;95801.66;;;24.09;42.61
20612;BME280;10465;42.686;23.364;2022-10-16T14:06:14;95803.50;;;24.02;39.10
20612;BME280;10465;42.686;23.364;2022-10-16T14:08:57;95794.59;;;24.01;44.36
20612;BME280;10465;42.686;23.364;2022-10-16T14:11:24;95803.59;;;24.09;41.68
20612;BME280;10465;42.686;23.364;2022-10-16T14:13:51;95812.84;;;24.08;40.12
20612;BME280;10465;42.686;23.364;2022-10-16T14:16:22;95793.44;;;23.99;42.50
20612;BME280;10465;42.686;23.364;2022-10-16T14:18:57;95796.41;;;23.90;36.65
20612;BME280;10465;42.686;23.364;2022-10-16T14:21:24;95806.66;;;23.77;34.83
20612;BME280;10465;42.686;23.364;2022-10-16T14:23:49;95817.56;;;23.84;33.88
20612;BME280;10465;42.686;23.364;2022-10-16T14:26:18;95805.88;;;23.77;32.76
20612;BME280;10465;42.686;23.364;2022-10-16T14:28:45;95802.94;;;23.59;31.24
20612;BME280;10465;42.686;23.364;2022-10-16T14:33:53;95823.16;;;23.68;36.97
20612;BME280;10465;42.686;23.364;2022-10-16T14:36:19;95822.25;;;23.61;33.27
20612;BME280;10465;42.686;23.364;2022-10-16T14:41:29;95803.78;;;23.36;36.35
20612;BME280;10465;42.686;23.364;2022-10-16T14:44:04;95829.22;;;23.35;33.91
20612;BME280;10465;42.686;23.364;2022-10-16T14:46:33;95819.78;;;23.22;35.79
20612;BME280;10465;42.686;23.364;2022-10-16T14:49:04;95821.59;;;23.14;31.98
20612;BME280;10465;42.686;23.364;2022-10-16T14:51:39;95815.66;;;22.82;32.15
20612;BME280;10465;42.686;23.364;2022-10-16T14:54:10;95834.41;;;22.75;33.90
20612;BME280;10465;42.686;23.364;2022-10-16T14:56:50;95841.91;;;22.62;35.57
20612;BME280;10465;42.686;23.364;2022-10-16T14:59:20;95841.34;;;22.53;34.63
20612;BME280;10465;42.686;23.364;2022-10-16T15:01:48;95822.13;;;22.16;36.67
20612;BME280;10465;42.686;23.364;2022-10-16T15:04:14;95850.69;;;22.17;41.20
20612;BME280;10465;42.686;23.364;2022-10-16T15:06:40;95853.84;;;21.84;36.68
20612;BME280;10465;42.686;23.364;2022-10-16T15:09:06;95851.91;;;21.49;37.76
20612;BME280;10465;42.686;23.364;2022-10-16T15:11:32;95818.25;;;20.92;35.07
20612;BME280;10465;42.686;23.364;2022-10-16T15:13:58;95836.22;;;20.72;41.21
20612;BME280;10465;42.686;23.364;2022-10-16T15:16:24;95852.22;;;20.53;36.98
20612;BME280;10465;42.686;23.364;2022-10-16T15:18:49;95852.63;;;20.39;41.19
20612;BME280;10465;42.686;23.364;2022-10-16T15:21:28;95847.28;;;20.27;40.47
20612;BME280;10465;42.686;23.364;2022-10-16T15:23:55;95847.81;;;20.04;41.19
20612;BME280;10465;42.686;23.364;2022-10-16T15:26:31;95853.09;;;20.00;42.72